sensor_id;sensor_type;location;lat;lon;timestamp;temperature;humidity
25871;DHT22;13689;48.590;7.752;2022-12-18T00:03:49;-2.70;88.80
25871;DHT22;13689;48.590;7.752;2022-12-18T00:06:15;-2.80;88.80
25871;DHT22;13689;48.590;7.752;2022-12-18T00:08:42;-2.80;89.00
25871;DHT22;13689;48.590;7.752;2022-12-18T00:11:11;-2.80;89.20
25871;DHT22;13689;48.590;7.752;2022-12-18T00:13:37;-2.80;89.10
25871;DHT22;13689;48.590;7.752;2022-12-18T00:16:06;-2.90;89.00
25871;DHT22;13689;48.590;7.752;2022-12-18T00:18:32;-2.80;89.30
25871;DHT22;13689;48.590;7.752;2022-12-18T00:20:59;-2.80;89.30
25871;DHT22;13689;48.590;7.752;2022-12-18T00:23:26;-2.80;89.30
25871;DHT22;13689;48.590;7.752;2022-12-18T00:25:52;-2.80;89.00
25871;DHT22;13689;48.590;7.752;2022-12-18T00:28:18;-2.90;88.90
25871;DHT22;13689;48.590;7.752;2022-12-18T00:30:44;-2.90;89.20
25871;DHT22;13689;48.590;7.752;2022-12-18T00:33:09;-2.80;89.80
25871;DHT22;13689;48.590;7.752;2022-12-18T00:35:35;-2.70;89.80
25871;DHT22;13689;48.590;7.752;2022-12-18T00:38:00;-2.70;89.70
25871;DHT22;13689;48.590;7.752;2022-12-18T00:40:26;-2.70;89.40
25871;DHT22;13689;48.590;7.752;2022-12-18T00:42:52;-2.60;89.60
25871;DHT22;13689;48.590;7.752;2022-12-18T00:45:21;-2.60;89.50
25871;DHT22;13689;48.590;7.752;2022-12-18T00:47:47;-2.60;89.50
25871;DHT22;13689;48.590;7.752;2022-12-18T00:50:12;-2.50;89.50
25871;DHT22;13689;48.590;7.752;2022-12-18T00:52:38;-2.60;89.00
25871;DHT22;13689;48.590;7.752;2022-12-18T00:55:04;-2.60;89.20
25871;DHT22;13689;48.590;7.752;2022-12-18T00:57:30;-2.60;89.30
25871;DHT22;13689;48.590;7.752;2022-12-18T00:59:55;-2.50;89.40
25871;DHT22;13689;48.590;7.752;2022-12-18T01:02:21;-2.50;89.40
25871;DHT22;13689;48.590;7.752;2022-12-18T01:04:46;-2.50;89.30
25871;DHT22;13689;48.590;7.752;2022-12-18T01:07:12;-2.40;89.40
25871;DHT22;13689;48.590;7.752;2022-12-18T01:09:38;-2.50;89.10
25871;DHT22;13689;48.590;7.752;2022-12-18T01:12:03;-2.40;89.20
25871;DHT22;13689;48.590;7.752;2022-12-18T01:14:29;-2.40;89.30
25871;DHT22;13689;48.590;7.752;2022-12-18T01:16:55;-2.40;89.40
25871;DHT22;13689;48.590;7.752;2022-12-18T01:19:20;-2.40;89.40
25871;DHT22;13689;48.590;7.752;2022-12-18T01:21:46;-2.40;89.30
25871;DHT22;13689;48.590;7.752;2022-12-18T01:24:12;-2.40;89.30
25871;DHT22;13689;48.590;7.752;2022-12-18T01:26:37;-2.40;89.20
25871;DHT22;13689;48.590;7.752;2022-12-18T01:29:03;-2.40;89.10
25871;DHT22;13689;48.590;7.752;2022-12-18T01:31:31;-2.50;88.70
25871;DHT22;13689;48.590;7.752;2022-12-18T01:34:00;-2.60;89.00
25871;DHT22;13689;48.590;7.752;2022-12-18T01:36:28;-2.60;89.00
25871;DHT22;13689;48.590;7.752;2022-12-18T01:38:55;-2.70;88.80
25871;DHT22;13689;48.590;7.752;2022-12-18T01:41:24;-2.80;88.80
25871;DHT22;13689;48.590;7.752;2022-12-18T01:43:57;-2.90;88.50
25871;DHT22;13689;48.590;7.752;2022-12-18T01:46:26;-3.00;89.00
25871;DHT22;13689;48.590;7.752;2022-12-18T01:48:58;-2.90;89.70
25871;DHT22;13689;48.590;7.752;2022-12-18T01:51:26;-2.90;89.30
25871;DHT22;13689;48.590;7.752;2022-12-18T01:53:52;-3.00;89.00
25871;DHT22;13689;48.590;7.752;2022-12-18T01:56:21;-3.00;89.40
25871;DHT22;13689;48.590;7.752;2022-12-18T01:59:00;-2.90;89.80
25871;DHT22;13689;48.590;7.752;2022-12-18T02:01:26;-2.70;89.80
25871;DHT22;13689;48.590;7.752;2022-12-18T02:03:52;-2.70;89.50
25871;DHT22;13689;48.590;7.752;2022-12-18T02:06:33;-2.70;89.30
25871;DHT22;13689;48.590;7.752;2022-12-18T02:09:20;-2.70;89.00
25871;DHT22;13689;48.590;7.752;2022-12-18T02:12:21;-2.90;88.40
25871;DHT22;13689;48.590;7.752;2022-12-18T02:15:18;-2.90;88.80
25871;DHT22;13689;48.590;7.752;2022-12-18T02:28:44;-2.70;89.20
25871;DHT22;13689;48.590;7.752;2022-12-18T02:31:14;-2.80;88.10
25871;DHT22;13689;48.590;7.752;2022-12-18T02:33:44;-2.80;88.40
25871;DHT22;13689;48.590;7.752;2022-12-18T02:36:11;-2.80;88.60
25871;DHT22;13689;48.590;7.752;2022-12-18T02:38:39;-2.90;87.70
25871;DHT22;13689;48.590;7.752;2022-12-18T02:41:05;-2.90;87.80
25871;DHT22;13689;48.590;7.752;2022-12-18T02:43:31;-3.00;88.20
25871;DHT22;13689;48.590;7.752;2022-12-18T02:45:59;-3.00;88.30
25871;DHT22;13689;48.590;7.752;2022-12-18T02:48:29;-3.00;88.10
25871;DHT22;13689;48.590;7.752;2022-12-18T02:51:14;-3.00;88.10
25871;DHT22;13689;48.590;7.752;2022-12-18T02:54:06;-3.00;88.40
25871;DHT22;13689;48.590;7.752;2022-12-18T02:56:44;-2.90;88.40
25871;DHT22;13689;48.590;7.752;2022-12-18T02:59:37;-2.90;88.30
25871;DHT22;13689;48.590;7.752;2022-12-18T03:05:12;-2.80;88.10
25871;DHT22;13689;48.590;7.752;2022-12-18T03:10:14;-2.90;88.00
25871;DHT22;13689;48.590;7.752;2022-12-18T03:12:47;-3.00;88.00
25871;DHT22;13689;48.590;7.752;2022-12-18T03:15:25;-3.00;87.70
25871;DHT22;13689;48.590;7.752;2022-12-18T03:17:56;-3.00;88.10
25871;DHT22;13689;48.590;7.752;2022-12-18T03:20:25;-3.10;88.10
25871;DHT22;13689;48.590;7.752;2022-12-18T03:22:57;-3.10;88.40
25871;DHT22;13689;48.590;7.752;2022-12-18T03:25:25;-2.90;89.00
25871;DHT22;13689;48.590;7.752;2022-12-18T03:27:56;-2.80;89.00
25871;DHT22;13689;48.590;7.752;2022-12-18T03:30:23;-2.70;88.80
25871;DHT22;13689;48.590;7.752;2022-12-18T03:32:58;-2.60;88.60
25871;DHT22;13689;48.590;7.752;2022-12-18T03:35:31;-2.60;88.40
25871;DHT22;13689;48.590;7.752;2022-12-18T03:37:58;-2.50;88.20
25871;DHT22;13689;48.590;7.752;2022-12-18T03:40:35;-2.60;87.80
25871;DHT22;13689;48.590;7.752;2022-12-18T03:43:08;-2.60;88.10
25871;DHT22;13689;48.590;7.752;2022-12-18T03:45:41;-2.50;88.20
25871;DHT22;13689;48.590;7.752;2022-12-18T03:50:54;-2.50;88.10
25871;DHT22;13689;48.590;7.752;2022-12-18T03:53:42;-2.60;87.60
25871;DHT22;13689;48.590;7.752;2022-12-18T03:56:09;-2.70;87.80
25871;DHT22;13689;48.590;7.752;2022-12-18T03:58:37;-2.80;88.00
25871;DHT22;13689;48.590;7.752;2022-12-18T04:01:09;-2.70;88.60
25871;DHT22;13689;48.590;7.752;2022-12-18T04:03:37;-2.60;88.80
25871;DHT22;13689;48.590;7.752;2022-12-18T04:06:05;-2.60;88.70
25871;DHT22;13689;48.590;7.752;2022-12-18T04:08:32;-2.50;88.40
25871;DHT22;13689;48.590;7.752;2022-12-18T04:10:59;-2.50;88.40
25871;DHT22;13689;48.590;7.752;2022-12-18T04:13:31;-2.50;88.40
25871;DHT22;13689;48.590;7.752;2022-12-18T04:15:57;-2.50;88.50
25871;DHT22;13689;48.590;7.752;2022-12-18T04:18:23;-2.40;88.50
25871;DHT22;13689;48.590;7.752;2022-12-18T04:20:48;-2.40;88.50
25871;DHT22;13689;48.590;7.752;2022-12-18T04:23:14;-2.40;88.40
25871;DHT22;13689;48.590;7.752;2022-12-18T04:25:40;-2.40;89.10
25871;DHT22;13689;48.590;7.752;2022-12-18T04:28:05;-2.30;88.50
25871;DHT22;13689;48.590;7.752;2022-12-18T04:30:31;-2.40;88.30
25871;DHT22;13689;48.590;7.752;2022-12-18T04:32:56;-2.40;88.50
25871;DHT22;13689;48.590;7.752;2022-12-18T04:35:22;-2.40;88.40
25871;DHT22;13689;48.590;7.752;2022-12-18T04:37:48;-2.40;88.40
25871;DHT22;13689;48.590;7.752;2022-12-18T04:40:13;-2.40;88.10
25871;DHT22;13689;48.590;7.752;2022-12-18T04:42:40;-2.50;88.20
25871;DHT22;13689;48.590;7.752;2022-12-18T04:45:06;-2.50;88.60
25871;DHT22;13689;48.590;7.752;2022-12-18T04:47:32;-2.40;88.70
25871;DHT22;13689;48.590;7.752;2022-12-18T04:49:58;-2.40;88.60
25871;DHT22;13689;48.590;7.752;2022-12-18T04:52:23;-2.40;88.60
25871;DHT22;13689;48.590;7.752;2022-12-18T04:54:49;-2.40;88.50
25871;DHT22;13689;48.590;7.752;2022-12-18T04:57:15;-2.40;88.50
25871;DHT22;13689;48.590;7.752;2022-12-18T04:59:40;-2.40;88.50
25871;DHT22;13689;48.590;7.752;2022-12-18T05:02:06;-2.50;88.40
25871;DHT22;13689;48.590;7.752;2022-12-18T05:04:32;-2.40;88.70
25871;DHT22;13689;48.590;7.752;2022-12-18T05:06:57;-2.40;88.80
25871;DHT22;13689;48.590;7.752;2022-12-18T05:09:23;-2.40;88.80
25871;DHT22;13689;48.590;7.752;2022-12-18T05:11:49;-2.40;88.60
25871;DHT22;13689;48.590;7.752;2022-12-18T05:14:15;-2.50;88.10
25871;DHT22;13689;48.590;7.752;2022-12-18T05:16:40;-2.60;88.40
25871;DHT22;13689;48.590;7.752;2022-12-18T05:19:06;-2.60;88.90
25871;DHT22;13689;48.590;7.752;2022-12-18T05:21:32;-2.50;89.00
25871;DHT22;13689;48.590;7.752;2022-12-18T05:23:57;-2.50;89.10
25871;DHT22;13689;48.590;7.752;2022-12-18T05:26:23;-2.50;88.80
25871;DHT22;13689;48.590;7.752;2022-12-18T05:28:49;-2.50;88.70
25871;DHT22;13689;48.590;7.752;2022-12-18T05:31:14;-2.50;88.70
25871;DHT22;13689;48.590;7.752;2022-12-18T05:33:40;-2.60;88.60
25871;DHT22;13689;48.590;7.752;2022-12-18T05:36:07;-2.60;88.90
25871;DHT22;13689;48.590;7.752;2022-12-18T05:38:36;-2.60;88.80
25871;DHT22;13689;48.590;7.752;2022-12-18T05:41:01;-2.70;88.40
25871;DHT22;13689;48.590;7.752;2022-12-18T05:43:27;-2.70;88.90
25871;DHT22;13689;48.590;7.752;2022-12-18T05:45:53;-2.70;89.10
25871;DHT22;13689;48.590;7.752;2022-12-18T05:48:20;-2.60;89.10
25871;DHT22;13689;48.590;7.752;2022-12-18T05:50:47;-2.60;89.00
25871;DHT22;13689;48.590;7.752;2022-12-18T05:53:15;-2.60;88.80
25871;DHT22;13689;48.590;7.752;2022-12-18T05:55:42;-2.60;88.60
25871;DHT22;13689;48.590;7.752;2022-12-18T05:58:09;-2.60;88.60
25871;DHT22;13689;48.590;7.752;2022-12-18T06:00:37;-2.60;88.80
25871;DHT22;13689;48.590;7.752;2022-12-18T06:03:08;-2.60;88.90
25871;DHT22;13689;48.590;7.752;2022-12-18T06:05:42;-2.60;88.70
25871;DHT22;13689;48.590;7.752;2022-12-18T06:08:09;-2.60;88.60
25871;DHT22;13689;48.590;7.752;2022-12-18T06:10:34;-2.60;88.80
25871;DHT22;13689;48.590;7.752;2022-12-18T06:13:00;-2.60;88.70
25871;DHT22;13689;48.590;7.752;2022-12-18T06:15:26;-2.60;88.80
25871;DHT22;13689;48.590;7.752;2022-12-18T06:17:52;-2.60;88.60
25871;DHT22;13689;48.590;7.752;2022-12-18T06:20:18;-2.60;88.60
25871;DHT22;13689;48.590;7.752;2022-12-18T06:22:44;-2.70;88.70
25871;DHT22;13689;48.590;7.752;2022-12-18T06:25:09;-2.80;88.30
25871;DHT22;13689;48.590;7.752;2022-12-18T06:27:35;-2.80;88.30
25871;DHT22;13689;48.590;7.752;2022-12-18T06:30:01;-2.80;88.90
25871;DHT22;13689;48.590;7.752;2022-12-18T06:32:27;-2.80;89.00
25871;DHT22;13689;48.590;7.752;2022-12-18T06:34:52;-2.80;88.90
25871;DHT22;13689;48.590;7.752;2022-12-18T06:37:19;-2.70;88.90
25871;DHT22;13689;48.590;7.752;2022-12-18T06:39:45;-2.70;88.80
25871;DHT22;13689;48.590;7.752;2022-12-18T06:42:10;-2.70;88.80
25871;DHT22;13689;48.590;7.752;2022-12-18T06:44:36;-2.70;88.80
25871;DHT22;13689;48.590;7.752;2022-12-18T06:47:02;-2.70;88.70
25871;DHT22;13689;48.590;7.752;2022-12-18T06:49:27;-2.70;88.70
25871;DHT22;13689;48.590;7.752;2022-12-18T06:51:53;-2.70;88.50
25871;DHT22;13689;48.590;7.752;2022-12-18T06:54:19;-2.80;88.40
25871;DHT22;13689;48.590;7.752;2022-12-18T06:56:47;-2.80;88.60
25871;DHT22;13689;48.590;7.752;2022-12-18T06:59:15;-2.80;88.60
25871;DHT22;13689;48.590;7.752;2022-12-18T07:01:40;-2.80;88.60
25871;DHT22;13689;48.590;7.752;2022-12-18T07:04:06;-2.80;88.50
25871;DHT22;13689;48.590;7.752;2022-12-18T07:06:32;-2.80;88.40
25871;DHT22;13689;48.590;7.752;2022-12-18T07:08:57;-2.90;88.10
25871;DHT22;13689;48.590;7.752;2022-12-18T07:11:23;-3.00;88.20
25871;DHT22;13689;48.590;7.752;2022-12-18T07:13:49;-3.00;88.60
25871;DHT22;13689;48.590;7.752;2022-12-18T07:16:17;-3.00;88.80
25871;DHT22;13689;48.590;7.752;2022-12-18T07:18:43;-2.90;88.80
25871;DHT22;13689;48.590;7.752;2022-12-18T07:21:12;-2.80;88.90
25871;DHT22;13689;48.590;7.752;2022-12-18T07:23:38;-2.80;88.80
25871;DHT22;13689;48.590;7.752;2022-12-18T07:26:09;-2.80;88.70
25871;DHT22;13689;48.590;7.752;2022-12-18T07:28:36;-2.80;88.60
25871;DHT22;13689;48.590;7.752;2022-12-18T07:31:07;-2.90;87.90
25871;DHT22;13689;48.590;7.752;2022-12-18T07:33:34;-2.90;88.40
25871;DHT22;13689;48.590;7.752;2022-12-18T07:36:04;-2.90;88.80
25871;DHT22;13689;48.590;7.752;2022-12-18T07:38:31;-2.90;88.20
25871;DHT22;13689;48.590;7.752;2022-12-18T07:41:05;-3.10;88.00
25871;DHT22;13689;48.590;7.752;2022-12-18T07:43:31;-3.10;88.80
25871;DHT22;13689;48.590;7.752;2022-12-18T07:45:57;-3.00;89.00
25871;DHT22;13689;48.590;7.752;2022-12-18T07:48:23;-2.90;89.00
25871;DHT22;13689;48.590;7.752;2022-12-18T07:50:48;-2.90;88.80
25871;DHT22;13689;48.590;7.752;2022-12-18T07:53:14;-2.80;88.80
25871;DHT22;13689;48.590;7.752;2022-12-18T07:55:40;-2.80;88.80
25871;DHT22;13689;48.590;7.752;2022-12-18T07:58:07;-2.70;88.80
25871;DHT22;13689;48.590;7.752;2022-12-18T08:00:34;-2.70;88.80
25871;DHT22;13689;48.590;7.752;2022-12-18T08:03:00;-2.70;88.70
25871;DHT22;13689;48.590;7.752;2022-12-18T08:05:25;-2.60;88.50
25871;DHT22;13689;48.590;7.752;2022-12-18T08:07:51;-2.60;88.10
25871;DHT22;13689;48.590;7.752;2022-12-18T08:10:18;-2.70;87.90
25871;DHT22;13689;48.590;7.752;2022-12-18T08:12:43;-2.70;88.40
25871;DHT22;13689;48.590;7.752;2022-12-18T08:15:09;-2.80;87.70
25871;DHT22;13689;48.590;7.752;2022-12-18T08:17:35;-2.80;87.80
25871;DHT22;13689;48.590;7.752;2022-12-18T08:20:00;-2.80;88.40
25871;DHT22;13689;48.590;7.752;2022-12-18T08:22:26;-2.70;88.70
25871;DHT22;13689;48.590;7.752;2022-12-18T08:24:52;-2.60;88.70
25871;DHT22;13689;48.590;7.752;2022-12-18T08:27:17;-2.50;88.80
25871;DHT22;13689;48.590;7.752;2022-12-18T08:29:43;-2.50;88.50
25871;DHT22;13689;48.590;7.752;2022-12-18T08:32:09;-2.60;88.00
25871;DHT22;13689;48.590;7.752;2022-12-18T08:34:34;-2.50;88.40
25871;DHT22;13689;48.590;7.752;2022-12-18T08:37:00;-2.40;88.60
25871;DHT22;13689;48.590;7.752;2022-12-18T08:39:31;-2.40;88.30
25871;DHT22;13689;48.590;7.752;2022-12-18T08:41:57;-2.40;88.20
25871;DHT22;13689;48.590;7.752;2022-12-18T08:44:42;-2.30;88.20
25871;DHT22;13689;48.590;7.752;2022-12-18T08:47:08;-2.30;87.90
25871;DHT22;13689;48.590;7.752;2022-12-18T08:49:34;-2.30;88.20
25871;DHT22;13689;48.590;7.752;2022-12-18T08:52:06;-2.40;87.80
25871;DHT22;13689;48.590;7.752;2022-12-18T08:54:31;-2.40;88.10
25871;DHT22;13689;48.590;7.752;2022-12-18T08:56:57;-2.40;88.50
25871;DHT22;13689;48.590;7.752;2022-12-18T08:59:22;-2.30;88.60
25871;DHT22;13689;48.590;7.752;2022-12-18T09:01:49;-2.30;88.50
25871;DHT22;13689;48.590;7.752;2022-12-18T09:04:14;-2.30;88.60
25871;DHT22;13689;48.590;7.752;2022-12-18T09:06:40;-2.30;88.50
25871;DHT22;13689;48.590;7.752;2022-12-18T09:09:06;-2.20;88.40
25871;DHT22;13689;48.590;7.752;2022-12-18T09:11:33;-2.30;88.30
25871;DHT22;13689;48.590;7.752;2022-12-18T09:14:00;-2.20;88.40
25871;DHT22;13689;48.590;7.752;2022-12-18T09:16:27;-2.20;88.30
25871;DHT22;13689;48.590;7.752;2022-12-18T09:18:56;-2.10;88.40
25871;DHT22;13689;48.590;7.752;2022-12-18T09:21:26;-2.00;88.60
25871;DHT22;13689;48.590;7.752;2022-12-18T09:23:53;-2.00;88.40
25871;DHT22;13689;48.590;7.752;2022-12-18T09:26:23;-2.00;87.90
25871;DHT22;13689;48.590;7.752;2022-12-18T09:28:49;-2.00;88.10
25871;DHT22;13689;48.590;7.752;2022-12-18T09:31:16;-2.00;88.00
25871;DHT22;13689;48.590;7.752;2022-12-18T09:33:42;-2.00;87.60
25871;DHT22;13689;48.590;7.752;2022-12-18T09:36:10;-2.10;87.40
25871;DHT22;13689;48.590;7.752;2022-12-18T09:38:36;-2.10;88.00
25871;DHT22;13689;48.590;7.752;2022-12-18T09:44:39;-2.00;88.30
25871;DHT22;13689;48.590;7.752;2022-12-18T09:47:27;-1.90;88.30
25871;DHT22;13689;48.590;7.752;2022-12-18T09:50:03;-1.90;88.20
25871;DHT22;13689;48.590;7.752;2022-12-18T09:52:43;-1.80;88.20
25871;DHT22;13689;48.590;7.752;2022-12-18T09:55:12;-1.70;88.00
25871;DHT22;13689;48.590;7.752;2022-12-18T09:57:47;-1.70;87.80
25871;DHT22;13689;48.590;7.752;2022-12-18T10:00:23;-1.70;87.80
25871;DHT22;13689;48.590;7.752;2022-12-18T10:02:58;-1.70;87.70
25871;DHT22;13689;48.590;7.752;2022-12-18T10:05:40;-1.70;87.90
25871;DHT22;13689;48.590;7.752;2022-12-18T10:08:38;-1.60;88.00
25871;DHT22;13689;48.590;7.752;2022-12-18T10:19:59;-1.70;87.80
25871;DHT22;13689;48.590;7.752;2022-12-18T10:27:31;-1.50;87.80
25871;DHT22;13689;48.590;7.752;2022-12-18T10:29:57;-1.60;87.50
25871;DHT22;13689;48.590;7.752;2022-12-18T10:32:29;-1.70;86.90
25871;DHT22;13689;48.590;7.752;2022-12-18T10:34:56;-1.90;86.50
25871;DHT22;13689;48.590;7.752;2022-12-18T10:37:23;-2.10;86.70
25871;DHT22;13689;48.590;7.752;2022-12-18T10:42:34;-2.30;87.20
25871;DHT22;13689;48.590;7.752;2022-12-18T10:45:10;-2.20;88.20
25871;DHT22;13689;48.590;7.752;2022-12-18T10:47:36;-2.00;88.50
25871;DHT22;13689;48.590;7.752;2022-12-18T10:50:39;-1.90;88.30
25871;DHT22;13689;48.590;7.752;2022-12-18T10:53:05;-1.80;87.90
25871;DHT22;13689;48.590;7.752;2022-12-18T10:55:44;-1.80;87.60
25871;DHT22;13689;48.590;7.752;2022-12-18T10:58:21;-1.70;87.60
25871;DHT22;13689;48.590;7.752;2022-12-18T11:03:44;-1.60;87.30
25871;DHT22;13689;48.590;7.752;2022-12-18T11:06:16;-1.70;87.00
25871;DHT22;13689;48.590;7.752;2022-12-18T11:08:43;-1.80;86.30
25871;DHT22;13689;48.590;7.752;2022-12-18T11:11:29;-2.10;86.30
25871;DHT22;13689;48.590;7.752;2022-12-18T11:16:26;-2.20;86.80
25871;DHT22;13689;48.590;7.752;2022-12-18T11:21:49;-2.10;86.60
25871;DHT22;13689;48.590;7.752;2022-12-18T11:24:27;-2.20;86.20
25871;DHT22;13689;48.590;7.752;2022-12-18T11:26:55;-2.10;87.20
25871;DHT22;13689;48.590;7.752;2022-12-18T11:29:37;-1.90;87.50
25871;DHT22;13689;48.590;7.752;2022-12-18T11:35:32;-1.70;86.70
25871;DHT22;13689;48.590;7.752;2022-12-18T11:38:06;-1.80;85.70
25871;DHT22;13689;48.590;7.752;2022-12-18T11:40:38;-1.90;85.70
25871;DHT22;13689;48.590;7.752;2022-12-18T11:43:31;-2.00;85.10
25871;DHT22;13689;48.590;7.752;2022-12-18T11:46:13;-2.00;86.00
25871;DHT22;13689;48.590;7.752;2022-12-18T11:48:56;-1.70;87.10
25871;DHT22;13689;48.590;7.752;2022-12-18T11:51:38;-1.60;86.40
25871;DHT22;13689;48.590;7.752;2022-12-18T11:57:18;-1.70;85.30
25871;DHT22;13689;48.590;7.752;2022-12-18T11:59:53;-1.70;86.00
25871;DHT22;13689;48.590;7.752;2022-12-18T12:08:26;-1.50;85.30
25871;DHT22;13689;48.590;7.752;2022-12-18T12:11:29;-1.60;85.20
25871;DHT22;13689;48.590;7.752;2022-12-18T12:22:17;-1.40;86.20
25871;DHT22;13689;48.590;7.752;2022-12-18T12:25:09;-1.30;86.20
25871;DHT22;13689;48.590;7.752;2022-12-18T12:31:07;-1.30;85.80
25871;DHT22;13689;48.590;7.752;2022-12-18T12:39:01;-1.70;85.00
25871;DHT22;13689;48.590;7.752;2022-12-18T12:41:31;-1.90;84.90
25871;DHT22;13689;48.590;7.752;2022-12-18T12:44:28;-2.10;85.10
25871;DHT22;13689;48.590;7.752;2022-12-18T12:47:00;-2.30;85.60
25871;DHT22;13689;48.590;7.752;2022-12-18T12:49:30;-2.20;86.50
25871;DHT22;13689;48.590;7.752;2022-12-18T12:54:43;-2.00;86.30
25871;DHT22;13689;48.590;7.752;2022-12-18T12:57:31;-1.80;86.90
25871;DHT22;13689;48.590;7.752;2022-12-18T13:00:18;-1.70;86.20
25871;DHT22;13689;48.590;7.752;2022-12-18T13:03:09;-1.70;86.00
25871;DHT22;13689;48.590;7.752;2022-12-18T13:05:49;-1.60;86.40
25871;DHT22;13689;48.590;7.752;2022-12-18T13:08:29;-1.60;85.50
25871;DHT22;13689;48.590;7.752;2022-12-18T13:10:57;-1.70;85.60
25871;DHT22;13689;48.590;7.752;2022-12-18T13:13:53;-1.80;85.70
25871;DHT22;13689;48.590;7.752;2022-12-18T13:16:22;-1.80;85.50
25871;DHT22;13689;48.590;7.752;2022-12-18T13:18:58;-1.90;85.70
25871;DHT22;13689;48.590;7.752;2022-12-18T13:21:33;-1.90;85.80
25871;DHT22;13689;48.590;7.752;2022-12-18T13:24:19;-1.90;86.00
25871;DHT22;13689;48.590;7.752;2022-12-18T13:26:45;-1.90;86.20
25871;DHT22;13689;48.590;7.752;2022-12-18T13:29:11;-2.00;86.10
25871;DHT22;13689;48.590;7.752;2022-12-18T13:32:01;-2.00;86.10
25871;DHT22;13689;48.590;7.752;2022-12-18T13:34:30;-2.00;86.60
25871;DHT22;13689;48.590;7.752;2022-12-18T13:37:39;-2.00;86.20
25871;DHT22;13689;48.590;7.752;2022-12-18T13:43:23;-2.10;86.60
25871;DHT22;13689;48.590;7.752;2022-12-18T13:48:29;-1.90;87.40
25871;DHT22;13689;48.590;7.752;2022-12-18T13:51:05;-1.80;87.50
25871;DHT22;13689;48.590;7.752;2022-12-18T13:53:51;-1.70;87.30
25871;DHT22;13689;48.590;7.752;2022-12-18T13:56:18;-1.60;87.00
25871;DHT22;13689;48.590;7.752;2022-12-18T13:59:48;-1.70;86.50
25871;DHT22;13689;48.590;7.752;2022-12-18T14:01:55;-1.80;86.30
25871;DHT22;13689;48.590;7.752;2022-12-18T14:04:24;-1.90;86.60
25871;DHT22;13689;48.590;7.752;2022-12-18T14:06:54;-2.00;86.60
25871;DHT22;13689;48.590;7.752;2022-12-18T14:09:29;-2.00;87.20
25871;DHT22;13689;48.590;7.752;2022-12-18T14:11:56;-2.10;87.00
25871;DHT22;13689;48.590;7.752;2022-12-18T14:14:45;-2.30;87.00
25871;DHT22;13689;48.590;7.752;2022-12-18T14:17:13;-2.30;87.50
25871;DHT22;13689;48.590;7.752;2022-12-18T14:19:44;-2.30;87.30
25871;DHT22;13689;48.590;7.752;2022-12-18T14:22:23;-2.40;87.50
25871;DHT22;13689;48.590;7.752;2022-12-18T14:27:47;-2.30;88.00
25871;DHT22;13689;48.590;7.752;2022-12-18T14:30:27;-2.30;87.90
25871;DHT22;13689;48.590;7.752;2022-12-18T14:33:14;-2.30;87.90
25871;DHT22;13689;48.590;7.752;2022-12-18T14:36:03;-2.30;88.50
25871;DHT22;13689;48.590;7.752;2022-12-18T14:38:28;-2.30;87.80
25871;DHT22;13689;48.590;7.752;2022-12-18T14:40:59;-2.30;87.70
25871;DHT22;13689;48.590;7.752;2022-12-18T14:43:31;-2.30;87.90
25871;DHT22;13689;48.590;7.752;2022-12-18T14:45:57;-2.30;87.90
25871;DHT22;13689;48.590;7.752;2022-12-18T14:53:39;-2.20;88.10
25871;DHT22;13689;48.590;7.752;2022-12-18T14:56:20;-2.10;88.00
25871;DHT22;13689;48.590;7.752;2022-12-18T14:58:54;-2.10;87.80
25871;DHT22;13689;48.590;7.752;2022-12-18T15:01:34;-2.10;87.80
25871;DHT22;13689;48.590;7.752;2022-12-18T15:04:03;-2.20;87.80
25871;DHT22;13689;48.590;7.752;2022-12-18T15:08:58;-2.10;88.00
25871;DHT22;13689;48.590;7.752;2022-12-18T15:11:57;-2.10;88.00
25871;DHT22;13689;48.590;7.752;2022-12-18T15:14:39;-2.10;87.90
25871;DHT22;13689;48.590;7.752;2022-12-18T15:17:22;-2.20;88.00
25871;DHT22;13689;48.590;7.752;2022-12-18T15:19:51;-2.20;87.80
25871;DHT22;13689;48.590;7.752;2022-12-18T15:22:21;-2.30;87.70
25871;DHT22;13689;48.590;7.752;2022-12-18T15:24:49;-2.30;88.00
25871;DHT22;13689;48.590;7.752;2022-12-18T15:27:32;-2.20;88.30
25871;DHT22;13689;48.590;7.752;2022-12-18T15:30:17;-2.20;88.20
25871;DHT22;13689;48.590;7.752;2022-12-18T15:32:44;-2.20;88.20
25871;DHT22;13689;48.590;7.752;2022-12-18T15:37:43;-2.30;87.80
25871;DHT22;13689;48.590;7.752;2022-12-18T15:40:21;-2.40;88.10
25871;DHT22;13689;48.590;7.752;2022-12-18T15:42:47;-2.40;88.30
25871;DHT22;13689;48.590;7.752;2022-12-18T15:45:32;-2.40;88.10
25871;DHT22;13689;48.590;7.752;2022-12-18T15:47:58;-2.40;88.40
25871;DHT22;13689;48.590;7.752;2022-12-18T15:50:24;-2.40;88.40
25871;DHT22;13689;48.590;7.752;2022-12-18T15:52:52;-2.40;88.80
25871;DHT22;13689;48.590;7.752;2022-12-18T15:55:23;-2.20;88.90
25871;DHT22;13689;48.590;7.752;2022-12-18T15:58:08;-2.20;88.80
25871;DHT22;13689;48.590;7.752;2022-12-18T16:00:36;-2.10;88.70
25871;DHT22;13689;48.590;7.752;2022-12-18T16:03:02;-2.10;88.50
25871;DHT22;13689;48.590;7.752;2022-12-18T16:05:29;-2.10;88.30
25871;DHT22;13689;48.590;7.752;2022-12-18T16:07:55;-2.10;88.20
25871;DHT22;13689;48.590;7.752;2022-12-18T16:10:20;-2.10;88.20
25871;DHT22;13689;48.590;7.752;2022-12-18T16:12:46;-2.10;87.90
25871;DHT22;13689;48.590;7.752;2022-12-18T16:15:13;-2.20;87.90
25871;DHT22;13689;48.590;7.752;2022-12-18T16:17:41;-2.30;88.00
25871;DHT22;13689;48.590;7.752;2022-12-18T16:20:15;-2.40;88.20
25871;DHT22;13689;48.590;7.752;2022-12-18T16:22:42;-2.40;88.90
25871;DHT22;13689;48.590;7.752;2022-12-18T16:25:23;-2.30;89.20
25871;DHT22;13689;48.590;7.752;2022-12-18T16:27:51;-2.30;89.00
25871;DHT22;13689;48.590;7.752;2022-12-18T16:30:19;-2.30;88.70
25871;DHT22;13689;48.590;7.752;2022-12-18T16:32:45;-2.30;88.70
25871;DHT22;13689;48.590;7.752;2022-12-18T16:35:12;-2.30;89.10
25871;DHT22;13689;48.590;7.752;2022-12-18T16:37:38;-2.20;89.20
25871;DHT22;13689;48.590;7.752;2022-12-18T16:40:05;-2.20;89.10
25871;DHT22;13689;48.590;7.752;2022-12-18T16:42:31;-2.10;88.90
25871;DHT22;13689;48.590;7.752;2022-12-18T16:44:57;-2.20;89.30
25871;DHT22;13689;48.590;7.752;2022-12-18T16:47:22;-2.30;88.50
25871;DHT22;13689;48.590;7.752;2022-12-18T16:49:48;-2.40;88.20
25871;DHT22;13689;48.590;7.752;2022-12-18T16:52:17;-2.40;88.80
25871;DHT22;13689;48.590;7.752;2022-12-18T16:54:42;-2.30;89.20
25871;DHT22;13689;48.590;7.752;2022-12-18T16:57:12;-2.30;89.10
25871;DHT22;13689;48.590;7.752;2022-12-18T16:59:37;-2.30;89.10
25871;DHT22;13689;48.590;7.752;2022-12-18T17:02:04;-2.30;88.90
25871;DHT22;13689;48.590;7.752;2022-12-18T17:04:30;-2.30;88.90
25871;DHT22;13689;48.590;7.752;2022-12-18T17:06:56;-2.40;88.60
25871;DHT22;13689;48.590;7.752;2022-12-18T17:09:22;-2.50;88.80
25871;DHT22;13689;48.590;7.752;2022-12-18T17:11:51;-2.50;89.40
25871;DHT22;13689;48.590;7.752;2022-12-18T17:14:20;-2.50;89.50
25871;DHT22;13689;48.590;7.752;2022-12-18T17:16:46;-2.50;89.50
25871;DHT22;13689;48.590;7.752;2022-12-18T17:19:13;-2.50;89.80
25871;DHT22;13689;48.590;7.752;2022-12-18T17:21:39;-2.40;90.00
25871;DHT22;13689;48.590;7.752;2022-12-18T17:24:05;-2.40;89.60
25871;DHT22;13689;48.590;7.752;2022-12-18T17:26:31;-2.40;89.30
25871;DHT22;13689;48.590;7.752;2022-12-18T17:28:57;-2.50;89.30
25871;DHT22;13689;48.590;7.752;2022-12-18T17:31:25;-2.50;89.30